Time;durP1;ratioP1;P1;durP2;ratioP2;P2;SDS_P1;SDS_P2;PMS_P1;PMS_P2;Temp;Humidity;BMP_temperature;BMP_pressure;BME280_temperature;BME280_humidity;BME280_pressure;Samples;Min_cycle;Max_cycle;Signal;HPM_P1;HPM_P2
2024/03/24 06:02:01;;;;;;;2.53;1.08;;;4.80;95.80;;;;;;4172759;23;20053;-79
2024/03/24 06:04:02;;;;;;;1.77;0.70;;;4.80;96.20;;;;;;4106304;28;20051;-79
2024/03/24 06:06:05;;;;;;;2.83;0.80;;;4.70;95.90;;;;;;4117998;28;20047;-79
2024/03/24 06:08:08;;;;;;;2.72;0.75;;;4.70;96.20;;;;;;4117814;28;20439;-79
2024/03/24 06:10:10;;;;;;;1.63;0.60;;;4.70;96.10;;;;;;4116197;28;20051;-80
2024/03/24 06:12:11;;;;;;;1.90;0.60;;;4.70;96.30;;;;;;4113359;28;20323;-79
2024/03/24 06:14:13;;;;;;;1.83;0.65;;;4.70;95.90;;;;;;4121013;28;20046;-80
2024/03/24 06:16:14;;;;;;;2.15;0.90;;;4.70;96.00;;;;;;4129898;28;20070;-81
2024/03/24 06:18:17;;;;;;;3.08;0.70;;;4.70;96.00;;;;;;4117720;28;20058;-80
2024/03/24 06:20:18;;;;;;;2.60;0.90;;;4.80;95.70;;;;;;4118730;28;20117;-82
2024/03/24 06:22:20;;;;;;;2.55;0.57;;;4.80;95.60;;;;;;4121321;28;20480;-80
2024/03/24 06:24:21;;;;;;;1.70;0.63;;;4.70;95.60;;;;;;4118039;28;20142;-82
2024/03/24 06:26:23;;;;;;;3.08;0.70;;;4.80;95.80;;;;;;4117948;28;20059;-79
2024/03/24 06:28:24;;;;;;;1.42;0.60;;;4.80;95.60;;;;;;4116118;28;20447;-79
2024/03/24 06:30:26;;;;;;;1.48;0.60;;;4.70;95.40;;;;;;4119069;28;20043;-81
2024/03/24 06:32:27;;;;;;;3.63;0.60;;;4.70;95.70;;;;;;4119291;28;20093;-80
2024/03/24 06:34:30;;;;;;;1.58;0.60;;;4.70;95.80;;;;;;4118357;28;20270;-79
2024/03/24 06:36:31;;;;;;;1.75;0.68;;;4.70;96.00;;;;;;4117982;28;20054;-80
2024/03/24 06:38:33;;;;;;;1.67;0.60;;;4.80;96.10;;;;;;4117543;28;20117;-82
2024/03/24 06:40:34;;;;;;;2.30;0.68;;;4.70;96.10;;;;;;4117526;28;20464;-83
2024/03/24 06:42:43;;;;;;;2.80;0.63;;;4.60;96.30;;;;;;4115927;28;20047;-82
2024/03/24 06:44:46;;;;;;;2.03;0.50;;;4.70;96.50;;;;;;4117622;28;20491;-82
2024/03/24 06:46:48;;;;;;;1.67;0.60;;;4.70;96.70;;;;;;4117229;28;20078;-84
2024/03/24 06:48:49;;;;;;;1.60;0.60;;;4.70;96.90;;;;;;4117893;28;20097;-81
2024/03/24 06:50:52;;;;;;;1.75;0.60;;;4.70;96.80;;;;;;4117378;28;20058;-79
2024/03/24 06:52:53;;;;;;;2.25;0.60;;;4.60;97.20;;;;;;4116923;28;20110;-80
2024/03/24 06:54:55;;;;;;;2.92;0.50;;;4.70;96.90;;;;;;4117646;28;20488;-78
2024/03/24 06:56:56;;;;;;;2.53;0.85;;;4.70;96.70;;;;;;4116824;28;20558;-81
2024/03/24 06:58:58;;;;;;;1.67;0.52;;;4.70;96.80;;;;;;4117177;28;20051;-81
2024/03/24 07:00:59;;;;;;;1.42;0.45;;;4.70;96.80;;;;;;4119722;28;20117;-82
2024/03/24 07:03:03;;;;;;;1.13;0.40;;;4.60;96.90;;;;;;4117234;28;20050;-75
2024/03/24 07:05:05;;;;;;;1.88;0.32;;;4.60;97.00;;;;;;4115464;28;20085;-77
2024/03/24 07:07:08;;;;;;;1.10;0.50;;;4.70;96.50;;;;;;4116794;28;20043;-79
2024/03/24 07:09:09;;;;;;;1.88;0.70;;;4.60;96.70;;;;;;4115183;28;20145;-78
2024/03/24 07:11:11;;;;;;;1.65;0.50;;;4.60;96.90;;;;;;4116499;28;20125;-78
2024/03/24 07:13:12;;;;;;;2.45;0.90;;;4.70;96.70;;;;;;4116104;28;20043;-80
2024/03/24 07:15:14;;;;;;;1.52;0.63;;;4.70;96.70;;;;;;4116494;28;20050;-78
2024/03/24 07:17:15;;;;;;;4.20;1.60;;;4.70;96.70;;;;;;4116344;28;20053;-79
2024/03/24 07:19:17;;;;;;;1.42;0.60;;;4.70;96.40;;;;;;4116910;28;20543;-78
2024/03/24 07:21:18;;;;;;;3.05;0.52;;;4.80;96.30;;;;;;4116868;28;20054;-78
2024/03/24 07:23:21;;;;;;;5.97;2.45;;;4.80;96.20;;;;;;4116635;28;20455;-77
2024/03/24 07:25:22;;;;;;;1.83;0.63;;;4.90;96.80;;;;;;4116540;28;20050;-78
2024/03/24 07:27:24;;;;;;;1.48;0.55;;;4.90;96.40;;;;;;4115427;28;20113;-78
2024/03/24 07:29:25;;;;;;;1.25;0.50;;;4.90;96.00;;;;;;4110002;28;20484;-78
2024/03/24 07:31:27;;;;;;;0.95;0.50;;;4.90;96.00;;;;;;4117736;28;20098;-80
2024/03/24 07:33:28;;;;;;;1.88;0.60;;;4.90;95.90;;;;;;4117843;28;20055;-79
2024/03/24 07:35:30;;;;;;;1.77;0.63;;;4.90;96.00;;;;;;4115170;28;20058;-79
2024/03/24 07:37:32;;;;;;;1.25;0.60;;;5.10;96.10;;;;;;4116592;28;20047;-79
2024/03/24 07:39:35;;;;;;;1.45;0.50;;;5.10;95.80;;;;;;4118031;28;20050;-78
2024/03/24 07:41:37;;;;;;;3.28;0.80;;;5.20;95.70;;;;;;4117747;28;20459;-78
2024/03/24 07:43:39;;;;;;;1.10;0.60;;;5.30;95.70;;;;;;4116207;28;20047;-78
2024/03/24 07:45:40;;;;;;;3.05;0.70;;;5.30;95.30;;;;;;4118338;28;20054;-77
2024/03/24 07:47:42;;;;;;;2.25;0.93;;;5.30;94.80;;;;;;4117680;28;20050;-79
2024/03/24 07:49:43;;;;;;;6.32;2.63;;;5.30;94.90;;;;;;4117462;28;20043;-79
2024/03/24 07:51:45;;;;;;;11.23;4.85;;;5.30;95.20;;;;;;4118491;28;20475;-79
2024/03/24 07:53:48;;;;;;;1.77;0.70;;;5.40;94.60;;;;;;4119194;28;20039;-79
2024/03/24 07:55:52;;;;;;;1.85;0.60;;;5.40;94.60;;;;;;4119006;28;20467;-80
2024/03/24 07:57:53;;;;;;;2.42;0.77;;;5.40;94.30;;;;;;4118166;28;20051;-79
2024/03/24 07:59:55;;;;;;;2.35;0.73;;;5.40;94.10;;;;;;4118327;28;20051;-82
2024/03/24 08:01:56;;;;;;;3.72;0.80;;;5.50;94.20;;;;;;4117561;28;20113;-76
2024/03/24 08:03:56;;;;;;;1.75;0.63;;;5.50;94.00;;;;;;4117439;28;20106;-77
2024/03/24 08:05:58;;;;;;;2.78;0.73;;;5.50;93.60;;;;;;4116962;28;20058;-77
2024/03/24 08:07:59;;;;;;;3.58;0.93;;;5.50;93.60;;;;;;4116623;28;20078;-78
2024/03/24 08:10:01;;;;;;;2.22;0.85;;;5.50;93.40;;;;;;4118058;28;20050;-78
2024/03/24 08:12:04;;;;;;;2.35;0.80;;;5.70;93.70;;;;;;4119285;28;20543;-75
2024/03/24 08:14:05;;;;;;;2.45;0.60;;;5.70;92.90;;;;;;4117188;28;20051;-76
2024/03/24 08:16:06;;;;;;;2.70;0.80;;;5.70;92.70;;;;;;4117672;28;20055;-78
2024/03/24 08:18:08;;;;;;;2.47;0.88;;;5.80;92.60;;;;;;4120654;28;20055;-79
2024/03/24 08:20:10;;;;;;;2.90;1.00;;;5.70;92.10;;;;;;4119775;28;20047;-80
2024/03/24 08:22:12;;;;;;;3.70;0.90;;;5.70;92.00;;;;;;4126393;28;20150;-79
2024/03/24 08:24:14;;;;;;;2.65;0.95;;;5.60;92.20;;;;;;4121483;28;20138;-80
2024/03/24 08:26:16;;;;;;;2.97;0.90;;;5.70;92.60;;;;;;4120434;28;20048;-78
2024/03/24 08:28:19;;;;;;;3.85;1.00;;;5.60;92.60;;;;;;4121320;28;20078;-79
2024/03/24 08:30:21;;;;;;;4.07;1.20;;;5.70;92.60;;;;;;4120566;28;20411;-79
2024/03/24 08:32:22;;;;;;;2.78;1.15;;;5.80;92.20;;;;;;4120537;28;20634;-79
2024/03/24 08:34:23;;;;;;;2.15;0.80;;;5.90;91.80;;;;;;4120299;28;20101;-79
2024/03/24 08:36:25;;;;;;;2.60;0.82;;;6.00;91.70;;;;;;4118882;28;20106;-76
2024/03/24 08:38:26;;;;;;;2.10;0.70;;;6.10;91.10;;;;;;4117636;28;20047;-77
2024/03/24 08:40:28;;;;;;;2.30;0.93;;;6.20;90.60;;;;;;4119550;28;20091;-78
2024/03/24 08:42:29;;;;;;;3.65;1.00;;;6.20;90.20;;;;;;4118935;28;20125;-79
2024/03/24 08:44:32;;;;;;;3.53;1.10;;;6.10;90.20;;;;;;4117840;28;20089;-79
2024/03/24 08:46:33;;;;;;;3.05;1.02;;;6.10;90.60;;;;;;4117818;28;20476;-77
2024/03/24 08:48:35;;;;;;;3.63;1.10;;;6.30;90.50;;;;;;4119667;28;20055;-79
2024/03/24 08:50:36;;;;;;;2.25;0.93;;;6.30;90.80;;;;;;4119196;28;20152;-79
2024/03/24 08:52:38;;;;;;;3.25;0.80;;;6.40;90.20;;;;;;4116143;28;20046;-78
2024/03/24 08:54:39;;;;;;;2.63;0.80;;;6.30;90.20;;;;;;4121978;28;20050;-78
2024/03/24 08:56:41;;;;;;;3.03;1.00;;;6.30;90.60;;;;;;4117295;28;20125;-79
2024/03/24 08:58:42;;;;;;;2.95;0.90;;;6.40;90.30;;;;;;4117925;28;20074;-77
2024/03/24 09:00:47;;;;;;;4.30;1.10;;;6.40;90.30;;;;;;4120479;28;20058;-78
2024/03/24 09:02:48;;;;;;;3.00;1.00;;;6.50;90.10;;;;;;4120392;28;20053;-79
2024/03/24 09:04:53;;;;;;;6.85;1.13;;;6.40;89.20;;;;;;4112849;28;20115;-78
2024/03/24 09:06:55;;;;;;;5.10;1.10;;;6.60;89.60;;;;;;4113253;28;20058;-76
2024/03/24 09:08:56;;;;;;;3.95;0.93;;;6.60;89.10;;;;;;4117567;28;20050;-77
2024/03/24 09:10:58;;;;;;;4.82;1.10;;;6.70;88.00;;;;;;4118229;28;20046;-78
2024/03/24 09:13:00;;;;;;;2.95;0.70;;;6.70;87.40;;;;;;4114233;28;20100;-78
2024/03/24 09:15:02;;;;;;;2.42;0.90;;;6.60;86.00;;;;;;4118633;28;20138;-82
2024/03/24 09:17:04;;;;;;;3.03;0.95;;;6.60;86.60;;;;;;4117344;28;20055;-77
2024/03/24 09:19:05;;;;;;;5.78;1.00;;;6.70;85.30;;;;;;4115024;28;20046;-80
2024/03/24 09:21:07;;;;;;;3.53;0.80;;;6.70;85.20;;;;;;4118787;28;20151;-77
2024/03/24 09:23:08;;;;;;;2.83;1.00;;;6.70;85.30;;;;;;4112662;28;20051;-79
2024/03/24 09:25:10;;;;;;;3.78;1.08;;;6.70;85.70;;;;;;4119315;28;20046;-83
2024/03/24 09:27:14;;;;;;;5.38;1.10;;;6.70;85.70;;;;;;4115487;28;20058;-78
2024/03/24 09:29:16;;;;;;;3.60;1.17;;;6.70;86.50;;;;;;4119487;28;20051;-78
2024/03/24 09:31:17;;;;;;;5.13;1.42;;;6.70;85.80;;;;;;4118507;28;20535;-78
2024/03/24 09:33:21;;;;;;;2.72;0.98;;;6.70;85.50;;;;;;4122406;28;20046;-78
2024/03/24 09:35:22;;;;;;;4.57;1.45;;;6.70;85.00;;;;;;4117100;28;20046;-76
2024/03/24 09:37:24;;;;;;;2.38;1.10;;;6.60;84.10;;;;;;4111222;28;20079;-77
2024/03/24 09:39:25;;;;;;;4.05;1.30;;;6.60;85.00;;;;;;4117290;28;20503;-81
2024/03/24 09:41:28;;;;;;;4.82;1.15;;;6.60;84.40;;;;;;4121951;28;20043;-77
2024/03/24 09:43:31;;;;;;;4.75;1.50;;;6.60;85.60;;;;;;4117820;28;20051;-81
2024/03/24 09:45:34;;;;;;;4.13;1.10;;;6.70;84.20;;;;;;4124544;28;20069;-78
2024/03/24 09:47:37;;;;;;;4.07;1.05;;;6.60;83.10;;;;;;4128869;28;20102;-80
2024/03/24 09:49:46;;;;;;;10.63;3.47;;;6.70;83.30;;;;;;4126854;28;20070;-82
2024/03/24 09:51:50;;;;;;;7.32;2.63;;;6.70;82.90;;;;;;4131939;28;20027;-81
2024/03/24 09:53:52;;;;;;;8.48;3.35;;;6.60;83.00;;;;;;4129420;28;20058;-81
2024/03/24 09:55:54;;;;;;;3.63;1.27;;;6.60;82.20;;;;;;4125781;28;20051;-78
2024/03/24 09:57:57;;;;;;;3.92;1.38;;;6.60;81.90;;;;;;4118808;28;20118;-78
2024/03/24 09:59:59;;;;;;;3.75;1.30;;;6.70;82.10;;;;;;4118898;28;20062;-81
2024/03/24 10:02:02;;;;;;;4.22;1.35;;;6.70;81.50;;;;;;4126172;28;20065;-80
2024/03/24 10:04:04;;;;;;;4.63;1.50;;;6.60;82.10;;;;;;4104390;28;20146;-83
2024/03/24 10:06:10;;;;;;;5.35;1.80;;;6.60;81.60;;;;;;4117118;28;20066;-78
2024/03/24 10:08:11;;;;;;;4.15;1.50;;;6.60;81.20;;;;;;4122804;28;20047;-78
2024/03/24 10:10:15;;;;;;;3.60;1.40;;;6.50;81.70;;;;;;4120958;28;20057;-78
2024/03/24 10:12:16;;;;;;;4.00;1.38;;;6.50;81.50;;;;;;4115734;28;20078;-77
2024/03/24 10:14:25;;;;;;;3.47;1.17;;;6.50;81.80;;;;;;4118657;28;20054;-78
2024/03/24 10:16:27;;;;;;;3.85;1.35;;;6.40;81.80;;;;;;4123501;28;20043;-84
2024/03/24 10:18:29;;;;;;;3.83;1.20;;;6.40;81.70;;;;;;4100218;28;20054;-78
2024/03/24 10:20:30;;;;;;;5.55;1.30;;;6.40;82.10;;;;;;4098322;28;20047;-82
2024/03/24 10:22:33;;;;;;;4.55;1.50;;;6.40;82.20;;;;;;4099134;28;20389;-80
2024/03/24 10:24:35;;;;;;;5.68;1.52;;;6.40;82.20;;;;;;4108505;28;20051;-77
2024/03/24 10:26:37;;;;;;;3.55;1.50;;;6.50;82.20;;;;;;4114691;28;20075;-79
2024/03/24 10:28:38;;;;;;;5.50;1.20;;;6.50;82.90;;;;;;4106673;28;20047;-80
2024/03/24 10:30:40;;;;;;;4.55;1.40;;;6.50;81.40;;;;;;4108337;28;20524;-77
2024/03/24 10:32:41;;;;;;;4.90;1.60;;;6.50;81.30;;;;;;4093021;28;20051;-76
2024/03/24 10:34:43;;;;;;;5.07;1.55;;;6.50;80.50;;;;;;4094723;29;20408;-77
2024/03/24 10:36:44;;;;;;;6.70;1.95;;;6.40;80.50;;;;;;4098927;28;20118;-77
2024/03/24 10:38:47;;;;;;;5.50;1.50;;;6.40;80.20;;;;;;4101144;28;20058;-76
2024/03/24 10:40:50;;;;;;;6.65;1.48;;;6.40;80.00;;;;;;4097080;28;20458;-78
2024/03/24 10:42:53;;;;;;;5.88;1.50;;;6.50;80.30;;;;;;4100392;29;20058;-75
2024/03/24 10:44:57;;;;;;;4.05;1.30;;;6.70;81.50;;;;;;4104469;28;20051;-76
2024/03/24 10:47:00;;;;;;;5.43;1.40;;;6.60;80.10;;;;;;4106334;28;20393;-80
2024/03/24 10:49:03;;;;;;;6.15;1.65;;;6.50;80.20;;;;;;4099362;28;20043;-82
2024/03/24 10:51:05;;;;;;;4.03;1.30;;;6.70;80.10;;;;;;4104088;29;20493;-81
2024/03/24 10:53:13;;;;;;;3.90;1.40;;;6.70;79.70;;;;;;4108817;28;20054;-83
2024/03/24 10:55:19;;;;;;;5.68;1.63;;;6.60;79.40;;;;;;4106757;29;20047;-78
2024/03/24 10:57:22;;;;;;;4.47;1.40;;;6.70;79.70;;;;;;4094953;29;20509;-81
2024/03/24 10:59:26;;;;;;;5.38;1.60;;;6.70;79.20;;;;;;4109556;28;20071;-83
2024/03/24 11:01:27;;;;;;;4.68;1.30;;;6.80;79.70;;;;;;4107619;28;20056;-83
2024/03/24 11:03:30;;;;;;;5.32;1.52;;;6.90;79.00;;;;;;4105138;29;20051;-79
2024/03/24 11:05:32;;;;;;;4.68;1.60;;;7.00;78.80;;;;;;4103679;29;20593;-78
2024/03/24 11:07:38;;;;;;;3.90;1.38;;;7.00;78.20;;;;;;4109011;28;20118;-83
2024/03/24 11:09:40;;;;;;;4.97;1.40;;;7.10;78.80;;;;;;4104503;28;20061;-80
2024/03/24 11:11:45;;;;;;;5.93;1.63;;;7.20;78.80;;;;;;4104736;29;20047;-81
2024/03/24 11:13:46;;;;;;;4.82;1.42;;;7.30;78.40;;;;;;4101200;29;20114;-76
2024/03/24 11:15:52;;;;;;;4.35;1.27;;;7.20;77.80;;;;;;4099742;29;20087;-80
2024/03/24 11:17:53;;;;;;;6.07;1.60;;;7.00;77.80;;;;;;4099754;29;20057;-81
2024/03/24 11:20:01;;;;;;;3.00;1.50;;;7.10;77.80;;;;;;4098502;28;20082;-78
2024/03/24 11:22:03;;;;;;;4.55;1.50;;;7.10;77.60;;;;;;4099448;29;20378;-77
2024/03/24 11:24:09;;;;;;;6.85;1.70;;;7.20;77.70;;;;;;4099438;29;20157;-81
2024/03/24 11:26:15;;;;;;;4.97;1.65;;;7.20;77.10;;;;;;4092957;29;20528;-81
2024/03/24 11:28:45;;;;;;;5.78;1.85;;;7.30;77.60;;;;;;4094951;29;20055;-79
2024/03/24 11:30:47;;;;;;;7.10;1.50;;;7.30;76.80;;;;;;4099869;28;20086;-80
2024/03/24 11:32:50;;;;;;;5.07;1.55;;;7.30;76.70;;;;;;4100320;29;20047;-80
2024/03/24 11:34:53;;;;;;;4.18;1.65;;;7.40;76.30;;;;;;4100938;29;20125;-81
2024/03/24 11:36:55;;;;;;;3.15;1.40;;;7.30;76.40;;;;;;4100671;29;20039;-78
2024/03/24 11:38:57;;;;;;;4.00;1.60;;;7.30;76.90;;;;;;4098931;29;20094;-84
2024/03/24 11:40:59;;;;;;;4.78;1.58;;;7.40;76.80;;;;;;4111587;28;20536;-83
2024/03/24 11:43:01;;;;;;;5.72;1.55;;;7.40;77.10;;;;;;4100624;28;20114;-77
2024/03/24 11:45:26;;;;;;;4.30;1.42;;;7.50;76.70;;;;;;4099652;28;20042;-82
2024/03/24 11:47:29;;;;;;;;;;;7.40;75.80;;;;;;4098658;28;20099;-79
2024/03/24 11:49:35;;;;;;;3.97;1.40;;;7.40;76.20;;;;;;4102603;28;19930;-79
2024/03/24 11:51:36;;;;;;;;;;;7.30;77.00;;;;;;4097482;28;20082;-80
2024/03/24 11:53:38;;;;;;;9.63;3.85;;;7.30;77.10;;;;;;4097555;28;20022;-78
2024/03/24 11:55:42;;;;;;;3.80;1.30;;;7.40;76.10;;;;;;4098252;28;20054;-81
2024/03/24 11:57:44;;;;;;;4.32;1.40;;;7.40;75.10;;;;;;4099435;28;20047;-79
2024/03/24 11:59:46;;;;;;;4.57;1.70;;;7.30;75.90;;;;;;4100523;29;20055;-80
2024/03/24 12:01:50;;;;;;;5.78;1.30;;;7.40;76.40;;;;;;4099273;28;20409;-79
2024/03/24 12:03:52;;;;;;;3.60;1.20;;;7.50;76.60;;;;;;4092509;29;20421;-80
2024/03/24 12:05:56;;;;;;;5.72;1.40;;;7.50;77.00;;;;;;4099609;28;20409;-77
2024/03/24 12:07:58;;;;;;;4.40;1.20;;;7.40;76.80;;;;;;4096399;29;20090;-81
2024/03/24 12:10:00;;;;;;;4.35;1.48;;;7.50;77.10;;;;;;4101420;28;20058;-78
2024/03/24 12:12:04;;;;;;;3.97;1.70;;;7.50;77.80;;;;;;4099785;28;20412;-81
2024/03/24 12:14:07;;;;;;;4.57;1.33;;;7.30;77.50;;;;;;4104835;28;20472;-80
2024/03/24 12:16:08;;;;;;;3.90;1.33;;;7.40;78.20;;;;;;4091951;28;20114;-82
2024/03/24 12:18:12;;;;;;;4.47;1.40;;;7.40;77.80;;;;;;4092716;29;20044;-80
2024/03/24 12:20:14;;;;;;;3.35;1.20;;;7.50;77.80;;;;;;4099678;29;20043;-79
2024/03/24 12:22:17;;;;;;;4.68;1.27;;;7.60;77.20;;;;;;4097964;29;20397;-80
2024/03/24 12:24:18;;;;;;;4.00;1.17;;;7.50;76.30;;;;;;4100079;29;20444;-81
2024/03/24 12:26:20;;;;;;;2.88;1.10;;;7.50;76.20;;;;;;4099399;29;20054;-81
2024/03/24 12:28:22;;;;;;;3.90;1.35;;;7.60;76.30;;;;;;4096823;29;20105;-80
2024/03/24 12:30:26;;;;;;;6.63;1.67;;;7.50;76.30;;;;;;4103913;28;20055;-81
2024/03/24 12:32:28;;;;;;;6.75;1.30;;;7.60;76.90;;;;;;4102383;29;20057;-81
2024/03/24 12:34:32;;;;;;;4.05;1.35;;;7.60;75.50;;;;;;4101825;29;20181;-82
2024/03/24 12:36:33;;;;;;;3.55;1.30;;;7.70;75.50;;;;;;4089887;29;20462;-80
2024/03/24 12:38:35;;;;;;;4.45;1.20;;;7.60;75.10;;;;;;4099134;29;20726;-80
2024/03/24 12:40:36;;;;;;;3.70;1.20;;;7.50;76.10;;;;;;4084034;29;20047;-79
2024/03/24 12:42:38;;;;;;;3.22;1.20;;;7.60;75.60;;;;;;4096244;29;20043;-80
2024/03/24 12:44:39;;;;;;;4.95;1.52;;;7.50;76.10;;;;;;4095110;29;20083;-79
2024/03/24 12:46:41;;;;;;;5.70;1.40;;;7.50;75.40;;;;;;4103034;29;20051;-79
2024/03/24 12:48:42;;;;;;;4.78;1.25;;;7.50;76.00;;;;;;4103085;29;20055;-81
2024/03/24 12:50:46;;;;;;;3.38;1.10;;;7.50;75.80;;;;;;4104377;29;20472;-80
2024/03/24 12:52:47;;;;;;;3.67;1.25;;;7.50;75.50;;;;;;4103440;29;20052;-80
2024/03/24 12:54:50;;;;;;;5.82;1.40;;;7.50;75.10;;;;;;4098627;29;20123;-80
2024/03/24 12:56:51;;;;;;;6.18;1.83;;;7.50;75.00;;;;;;4098703;29;20047;-79
2024/03/24 12:58:54;;;;;;;5.70;2.10;;;7.50;75.90;;;;;;4094519;29;20397;-82
2024/03/24 13:00:55;;;;;;;9.07;3.55;;;7.50;75.90;;;;;;4102991;28;20386;-80
2024/03/24 13:03:01;;;;;;;7.70;2.58;;;7.50;75.50;;;;;;4097425;28;20043;-81
2024/03/24 13:05:04;;;;;;;14.80;8.02;;;7.50;75.10;;;;;;4095988;29;20047;-82
2024/03/24 13:07:08;;;;;;;5.50;2.53;;;7.40;75.40;;;;;;4106746;29;20054;-82
2024/03/24 13:09:10;;;;;;;14.05;7.97;;;7.40;75.50;;;;;;4105379;29;20052;-82
2024/03/24 13:11:16;;;;;;;9.75;4.10;;;7.40;76.20;;;;;;4103112;29;20126;-81
2024/03/24 13:13:18;;;;;;;21.23;9.15;;;7.40;75.70;;;;;;4104545;29;20059;-81
2024/03/24 13:15:20;;;;;;;7.40;3.22;;;7.40;76.20;;;;;;4106220;29;20051;-82
2024/03/24 13:17:29;;;;;;;11.85;4.40;;;7.40;76.00;;;;;;4103268;29;20055;-83
2024/03/24 13:19:38;;;;;;;8.63;3.67;;;7.40;76.00;;;;;;4103206;29;20058;-81
2024/03/24 13:21:44;;;;;;;5.22;1.60;;;7.30;76.50;;;;;;4090260;29;20055;-81
2024/03/24 13:23:50;;;;;;;4.80;1.60;;;7.40;76.80;;;;;;4106574;29;20508;-82
2024/03/24 13:25:57;;;;;;;4.68;1.40;;;7.40;76.70;;;;;;4105351;29;20043;-82
2024/03/24 13:28:03;;;;;;;4.30;1.48;;;7.30;76.70;;;;;;4102791;28;20134;-81
2024/03/24 13:30:05;;;;;;;4.22;1.20;;;7.30;76.20;;;;;;4102046;28;20110;-80
2024/03/24 13:32:06;;;;;;;6.18;1.45;;;7.20;77.20;;;;;;4100170;28;20357;-82
2024/03/24 13:34:10;;;;;;;4.68;1.50;;;7.20;78.50;;;;;;4102977;29;20051;-79
2024/03/24 13:36:32;;;;;;;4.00;1.40;;;7.20;79.20;;;;;;4098952;29;20040;-80
2024/03/24 13:38:48;;;;;;;6.35;1.25;;;7.20;79.30;;;;;;4102276;28;20051;-81
2024/03/24 13:41:12;;;;;;;4.50;1.48;;;7.20;78.90;;;;;;4102195;29;20409;-83
2024/03/24 13:43:28;;;;;;;5.82;1.48;;;7.30;78.90;;;;;;4100961;29;20126;-81
2024/03/24 13:45:40;;;;;;;5.13;1.33;;;7.30;79.00;;;;;;4095916;29;20055;-81
2024/03/24 13:47:44;;;;;;;6.28;1.60;;;7.20;79.90;;;;;;4105307;29;20386;-81
2024/03/24 13:49:45;;;;;;;3.85;1.30;;;7.20;82.20;;;;;;4102759;29;20106;-83
2024/03/24 13:51:48;;;;;;;3.97;1.30;;;7.00;87.30;;;;;;4102108;29;20488;-81
2024/03/24 13:53:51;;;;;;;3.42;1.30;;;6.80;90.50;;;;;;4101869;28;20070;-83
2024/03/24 13:55:56;;;;;;;3.13;1.33;;;6.80;91.20;;;;;;4100527;29;20050;-83
2024/03/24 13:57:57;;;;;;;3.35;1.33;;;6.90;90.90;;;;;;4097472;29;20097;-81
2024/03/24 13:59:59;;;;;;;3.55;1.30;;;7.10;91.00;;;;;;4099185;29;20046;-81
2024/03/24 14:02:03;;;;;;;5.57;1.50;;;7.30;91.40;;;;;;4089051;28;20051;-80
2024/03/24 14:04:06;;;;;;;4.40;1.35;;;7.70;91.00;;;;;;4084017;29;20554;-83
2024/03/24 14:06:07;;;;;;;3.30;1.10;;;8.60;90.00;;;;;;4084779;29;20043;-81
2024/03/24 14:08:08;;;;;;;4.05;1.52;;;9.80;82.50;;;;;;4084167;29;20472;-81
2024/03/24 14:10:11;;;;;;;2.92;1.20;;;11.20;78.20;;;;;;4083501;29;20091;-82
2024/03/24 14:12:12;;;;;;;3.72;1.10;;;10.70;76.90;;;;;;4083074;29;20052;-78
2024/03/24 14:14:38;;;;;;;6.22;1.40;;;11.40;69.90;;;;;;4082508;29;20111;-80
2024/03/24 14:16:51;;;;;;;4.93;1.60;;;13.90;68.40;;;;;;4081810;29;20134;-81
2024/03/24 14:19:02;;;;;;;4.55;1.23;;;18.10;55.00;;;;;;4082476;29;20556;-80
2024/03/24 14:21:09;;;;;;;3.33;1.30;;;18.50;50.10;;;;;;4078218;29;20135;-80
2024/03/24 14:23:22;;;;;;;5.07;1.13;;;19.10;47.70;;;;;;4083959;29;20044;-79
2024/03/24 14:25:25;;;;;;;3.17;1.17;;;17.90;46.80;;;;;;4083203;29;20677;-77
2024/03/24 14:27:26;;;;;;;2.72;1.20;;;17.10;51.30;;;;;;4082887;29;20075;-80
2024/03/24 14:29:28;;;;;;;4.40;1.45;;;18.40;47.70;;;;;;4084543;29;20055;-81
2024/03/24 14:31:29;;;;;;;2.22;0.90;;;18.30;46.30;;;;;;4083003;29;20114;-81
2024/03/24 14:33:30;;;;;;;4.35;1.27;;;18.20;46.40;;;;;;4082475;29;20055;-79
2024/03/24 14:35:42;;;;;;;3.88;1.70;;;20.10;43.80;;;;;;4083627;29;20091;-79
2024/03/24 14:38:00;;;;;;;2.67;1.00;;;20.70;42.50;;;;;;4084255;29;20048;-79
2024/03/24 14:40:27;;;;;;;3.95;1.33;;;18.50;43.10;;;;;;4068817;29;20370;-83
2024/03/24 14:42:40;;;;;;;3.88;1.40;;;15.90;48.40;;;;;;4081464;29;20051;-83
2024/03/24 14:45:08;;;;;;;3.58;0.93;;;13.90;53.50;;;;;;4083688;29;20091;-81
2024/03/24 14:47:32;;;;;;;3.72;1.35;;;13.00;56.70;;;;;;4069592;29;20154;-80
2024/03/24 14:49:33;;;;;;;3.92;1.48;;;13.80;56.50;;;;;;4083920;29;20060;-81
2024/03/24 14:51:35;;;;;;;3.17;1.13;;;12.40;58.70;;;;;;4066102;29;20158;-82
2024/03/24 14:53:36;;;;;;;3.88;1.13;;;12.10;59.80;;;;;;4083541;29;20446;-81
2024/03/24 14:55:39;;;;;;;3.17;1.00;;;11.30;61.40;;;;;;4082189;29;20048;-79
2024/03/24 14:57:41;;;;;;;3.00;0.93;;;10.40;64.70;;;;;;4082467;29;20051;-81
2024/03/24 14:59:43;;;;;;;3.97;1.10;;;9.60;67.50;;;;;;4083262;29;20537;-80
2024/03/24 15:01:44;;;;;;;3.92;1.30;;;9.20;67.90;;;;;;4082870;28;20060;-82
2024/03/24 15:03:46;;;;;;;4.25;1.50;;;9.00;71.10;;;;;;4082866;29;20055;-81
2024/03/24 15:05:48;;;;;;;3.45;1.25;;;9.00;73.00;;;;;;4085174;29;20505;-81
2024/03/24 15:07:49;;;;;;;3.83;1.10;;;8.90;73.60;;;;;;4084682;29;20398;-82
2024/03/24 15:09:51;;;;;;;3.75;1.10;;;8.70;74.50;;;;;;4084388;29;20157;-81
2024/03/24 15:11:54;;;;;;;4.80;1.40;;;8.70;74.80;;;;;;4083835;29;20039;-81
2024/03/24 15:13:55;;;;;;;4.18;1.30;;;8.60;75.50;;;;;;4082973;29;20099;-80
2024/03/24 15:15:57;;;;;;;3.47;1.30;;;8.30;77.30;;;;;;4081349;29;20442;-81
2024/03/24 15:18:00;;;;;;;4.78;1.52;;;8.00;82.00;;;;;;4084948;29;20390;-78
2024/03/24 15:20:02;;;;;;;4.60;1.60;;;7.80;86.40;;;;;;4086363;29;20066;-79
2024/03/24 15:22:04;;;;;;;4.32;1.40;;;7.40;89.50;;;;;;4084055;29;20056;-79
2024/03/24 15:24:08;;;;;;;4.90;1.27;;;7.30;91.30;;;;;;4082641;29;20485;-81
2024/03/24 15:26:09;;;;;;;3.80;1.20;;;6.80;92.30;;;;;;4081550;29;20048;-80
2024/03/24 15:28:12;;;;;;;4.65;1.23;;;6.60;94.40;;;;;;4082920;29;20050;-81
2024/03/24 15:30:14;;;;;;;4.70;1.40;;;6.30;95.10;;;;;;4075621;29;20047;-82
2024/03/24 15:32:16;;;;;;;3.53;1.30;;;6.30;95.50;;;;;;4083306;29;20048;-81
2024/03/24 15:34:17;;;;;;;3.33;1.40;;;6.50;95.10;;;;;;4082963;29;20059;-82
2024/03/24 15:36:17;;;;;;;3.08;1.25;;;7.80;93.60;;;;;;4083371;29;20107;-83
2024/03/24 15:38:19;;;;;;;4.93;1.35;;;7.20;92.80;;;;;;4066847;29;20091;-81
2024/03/24 15:40:20;;;;;;;3.80;1.45;;;6.80;93.50;;;;;;4081627;29;20103;-81
2024/03/24 15:42:21;;;;;;;6.13;1.52;;;6.60;94.10;;;;;;4082565;29;20055;-79
2024/03/24 15:44:24;;;;;;;5.35;1.65;;;6.40;95.20;;;;;;4083649;29;20094;-81
2024/03/24 15:46:25;;;;;;;5.47;1.60;;;6.40;95.10;;;;;;4082261;29;20082;-81
2024/03/24 15:48:27;;;;;;;4.65;1.40;;;6.60;95.00;;;;;;4082934;29;20058;-82
2024/03/24 15:50:28;;;;;;;5.90;1.70;;;6.90;95.20;;;;;;4083106;29;20063;-79
2024/03/24 15:52:31;;;;;;;4.82;1.73;;;8.00;94.10;;;;;;4081522;29;20062;-79
2024/03/24 15:54:31;;;;;;;4.00;1.52;;;8.40;92.90;;;;;;4081437;29;20170;-79
2024/03/24 15:56:44;;;;;;;3.95;1.58;;;8.40;92.20;;;;;;4082363;29;20058;-79
2024/03/24 15:59:04;;;;;;;4.13;1.67;;;8.10;91.80;;;;;;4075184;29;20088;-77
2024/03/24 16:01:25;;;;;;;3.47;1.65;;;7.90;92.50;;;;;;4076792;28;20147;-78
2024/03/24 16:03:26;;;;;;;3.72;1.42;;;8.00;92.50;;;;;;4081953;29;20060;-79
2024/03/24 16:05:28;;;;;;;3.85;1.10;;;8.40;92.00;;;;;;4082905;29;20437;-78
2024/03/24 16:07:39;;;;;;;3.33;1.17;;;8.30;91.10;;;;;;4081371;29;20054;-78
2024/03/24 16:09:48;;;;;;;4.03;1.90;;;7.90;91.20;;;;;;4074855;29;20056;-78
2024/03/24 16:11:55;;;;;;;3.70;1.10;;;7.70;92.40;;;;;;4082138;29;20453;-80
2024/03/24 16:14:02;;;;;;;3.30;1.00;;;7.60;92.30;;;;;;4082551;29;20056;-77
2024/03/24 16:16:03;;;;;;;3.20;1.27;;;7.60;92.10;;;;;;4079713;29;20048;-78
2024/03/24 16:18:07;;;;;;;4.20;1.65;;;7.70;91.30;;;;;;4082892;29;20047;-78
2024/03/24 16:20:20;;;;;;;3.60;1.40;;;7.70;90.90;;;;;;4081880;29;20060;-78
2024/03/24 16:22:25;;;;;;;4.82;1.95;;;7.90;90.70;;;;;;4081617;29;20501;-78
2024/03/24 16:24:26;;;;;;;6.05;2.80;;;7.90;91.00;;;;;;4081390;29;20064;-83
2024/03/24 16:26:28;;;;;;;9.88;3.65;;;7.70;91.30;;;;;;4085583;29;20056;-83
2024/03/24 16:28:29;;;;;;;3.83;1.10;;;7.40;91.20;;;;;;4084363;29;20453;-85
2024/03/24 16:30:31;;;;;;;3.10;1.00;;;7.10;91.30;;;;;;4081742;29;20052;-84
2024/03/24 16:32:32;;;;;;;2.65;1.00;;;6.90;91.90;;;;;;4090087;29;20111;-83
2024/03/24 16:34:34;;;;;;;2.35;0.85;;;6.90;92.00;;;;;;4067881;29;20052;-85
2024/03/24 16:36:37;;;;;;;2.35;1.00;;;6.80;92.20;;;;;;4076024;29;20055;-84
2024/03/24 16:38:38;;;;;;;2.50;0.90;;;6.70;92.40;;;;;;4085870;29;20051;-81
2024/03/24 16:40:40;;;;;;;3.00;1.00;;;6.80;92.60;;;;;;4070255;29;20120;-84
2024/03/24 16:42:41;;;;;;;2.45;0.93;;;6.80;92.60;;;;;;4085915;29;20102;-82
2024/03/24 16:44:42;;;;;;;3.53;1.10;;;6.70;92.00;;;;;;4086845;29;20047;-83
2024/03/24 16:46:43;;;;;;;2.42;0.80;;;6.70;92.40;;;;;;4087107;29;20091;-81
2024/03/24 16:48:45;;;;;;;2.97;1.00;;;6.60;92.00;;;;;;4084015;29;20067;-82
2024/03/24 16:50:48;;;;;;;2.83;0.93;;;6.70;92.10;;;;;;4085704;29;20056;-82
2024/03/24 16:52:50;;;;;;;3.95;1.20;;;7.10;91.50;;;;;;4086409;29;20043;-86